createdAt,value
2022-08-23T00:02:23.795Z,3.13
2022-08-23T00:05:03.649Z,3.20
2022-08-23T00:07:38.808Z,3.13
2022-08-23T00:10:07.882Z,3.22
2022-08-23T00:12:34.652Z,3.10
2022-08-23T00:15:01.481Z,2.92
2022-08-23T00:20:17.216Z,2.85
2022-08-23T00:22:44.297Z,2.95
2022-08-23T00:25:14.410Z,2.95
2022-08-23T00:27:41.946Z,3.00
2022-08-23T00:30:12.095Z,3.38
2022-08-23T00:32:40.543Z,3.00
2022-08-23T00:38:32.039Z,3.25
2022-08-23T00:40:48.630Z,2.83
2022-08-23T00:43:29.824Z,2.95
2022-08-23T00:46:15.518Z,3.20
2022-08-23T00:48:42.691Z,3.10
2022-08-23T00:51:12.831Z,3.60
2022-08-23T00:56:34.459Z,3.35
2022-08-23T00:59:01.772Z,3.15
2022-08-23T01:01:29.013Z,3.40
2022-08-23T01:09:54.731Z,3.80
2022-08-23T01:12:32.364Z,3.70
2022-08-23T01:18:10.843Z,3.40
2022-08-23T01:20:47.978Z,3.42
2022-08-23T01:23:46.155Z,3.42
2022-08-23T01:26:15.655Z,3.60
2022-08-23T01:31:36.469Z,3.40
2022-08-23T01:34:09.650Z,3.63
2022-08-23T01:36:37.230Z,3.90
2022-08-23T01:41:53.824Z,3.90
2022-08-23T01:44:20.665Z,4.00
2022-08-23T01:46:47.981Z,3.90
2022-08-23T01:49:18.617Z,3.95
2022-08-23T01:51:45.858Z,3.80
2022-08-23T01:54:12.956Z,4.15
2022-08-23T01:56:42.168Z,4.10
2022-08-23T01:59:12.347Z,4.03
2022-08-23T02:01:39.408Z,4.47
2022-08-23T02:04:06.308Z,4.10
2022-08-23T02:06:33.323Z,4.10
2022-08-23T02:11:47.536Z,4.27
2022-08-23T02:14:18.526Z,4.00
2022-08-23T02:17:03.127Z,4.10
2022-08-23T02:19:35.640Z,4.20
2022-08-23T02:22:03.418Z,4.05
2022-08-23T02:27:18.186Z,4.05
2022-08-23T02:29:47.244Z,3.80
2022-08-23T02:32:16.033Z,3.90
2022-08-23T02:37:30.605Z,4.20
2022-08-23T02:42:44.100Z,3.80
2022-08-23T02:45:12.121Z,3.88
2022-08-23T02:47:38.920Z,4.20
2022-08-23T02:50:07.606Z,4.85
2022-08-23T02:52:34.966Z,3.95
2022-08-23T02:55:01.913Z,4.43
2022-08-23T03:00:17.578Z,4.68
2022-08-23T03:02:45.438Z,4.32
2022-08-23T03:05:13.871Z,4.70
2022-08-23T03:07:40.902Z,4.25
2022-08-23T03:10:08.634Z,4.70
2022-08-23T03:12:35.999Z,4.78
2022-08-23T03:17:50.647Z,4.70
2022-08-23T03:20:17.493Z,5.00
2022-08-23T03:22:48.353Z,4.80
2022-08-23T03:28:08.149Z,4.80
2022-08-23T03:33:22.144Z,4.40
2022-08-23T03:35:49.893Z,4.72
2022-08-23T03:38:16.819Z,4.70
2022-08-23T03:40:44.317Z,4.40
2022-08-23T03:43:11.411Z,4.20
2022-08-23T03:45:38.235Z,4.80
2022-08-23T03:50:54.689Z,4.80
2022-08-23T03:53:22.091Z,4.47
2022-08-23T03:55:48.873Z,4.60
2022-08-23T03:58:15.696Z,5.28
2022-08-23T04:00:42.538Z,4.95
2022-08-23T04:03:09.383Z,4.75
2022-08-23T04:05:36.136Z,4.70
2022-08-23T04:08:10.268Z,5.35
2022-08-23T04:10:37.086Z,5.20
2022-08-23T04:13:03.852Z,9.70
2022-08-23T04:15:30.696Z,6.95
2022-08-23T04:17:59.452Z,6.80
2022-08-23T04:20:26.553Z,5.28
2022-08-23T04:22:55.902Z,4.90
2022-08-23T04:28:09.545Z,4.85
2022-08-23T04:30:36.358Z,5.07
2022-08-23T04:33:10.729Z,4.93
2022-08-23T04:38:26.249Z,4.30
2022-08-23T04:40:54.464Z,4.30
2022-08-23T04:43:21.232Z,4.68
2022-08-23T04:45:48.917Z,4.60
2022-08-23T04:48:15.771Z,4.60
2022-08-23T04:50:42.570Z,4.65
2022-08-23T04:55:56.873Z,7.15
2022-08-23T05:01:10.769Z,4.70
2022-08-23T05:03:38.292Z,5.28
2022-08-23T05:06:05.352Z,9.20
2022-08-23T05:08:32.910Z,10.05
2022-08-23T05:11:05.455Z,6.82
2022-08-23T05:13:34.910Z,4.20
2022-08-23T05:16:02.294Z,4.40
2022-08-23T05:18:29.098Z,4.50
2022-08-23T05:20:55.901Z,4.50
2022-08-23T05:23:23.579Z,4.28
2022-08-23T05:25:59.852Z,4.63
2022-08-23T05:28:32.833Z,7.35
2022-08-23T05:31:03.048Z,7.10
2022-08-23T05:36:20.157Z,5.33
2022-08-23T05:38:47.255Z,5.00
2022-08-23T05:41:15.857Z,5.80
2022-08-23T05:43:43.418Z,4.88
2022-08-23T05:46:16.043Z,4.50
2022-08-23T05:48:48.500Z,4.75
2022-08-23T05:51:21.757Z,4.03
2022-08-23T05:53:51.087Z,4.00
2022-08-23T05:56:22.877Z,4.07
2022-08-23T05:58:51.348Z,4.10
2022-08-23T06:04:08.662Z,4.00
2022-08-23T06:09:22.531Z,3.45
2022-08-23T06:14:16.209Z,3.70
2022-08-23T06:16:46.585Z,3.80
2022-08-23T06:19:14.844Z,4.27
2022-08-23T06:21:43.068Z,3.50
2022-08-23T06:24:10.023Z,3.30
2022-08-23T06:26:39.863Z,3.78
2022-08-23T06:29:10.697Z,3.30
2022-08-23T06:31:45.048Z,3.10
2022-08-23T06:34:17.637Z,2.80
2022-08-23T06:36:45.936Z,3.10
2022-08-23T06:39:13.611Z,3.08
2022-08-23T06:41:40.411Z,3.70
2022-08-23T06:44:07.300Z,4.75
2022-08-23T06:46:34.498Z,3.75
2022-08-23T06:51:53.631Z,3.38
2022-08-23T06:54:26.784Z,3.10
2022-08-23T06:56:54.119Z,2.72
2022-08-23T06:59:21.339Z,2.80
2022-08-23T07:02:04.654Z,2.70
2022-08-23T07:04:37.094Z,2.30
2022-08-23T07:09:51.726Z,2.00
2022-08-23T07:12:18.832Z,2.00
2022-08-23T07:14:45.829Z,2.15
2022-08-23T07:17:12.842Z,2.40
2022-08-23T07:19:40.128Z,1.85
2022-08-23T07:22:07.975Z,1.90
2022-08-23T07:27:21.752Z,4.80
2022-08-23T07:32:15.313Z,6.03
2022-08-23T07:34:42.111Z,1.90
2022-08-23T07:37:15.233Z,2.20
2022-08-23T07:39:43.123Z,2.00
2022-08-23T07:44:56.973Z,2.20
2022-08-23T07:50:11.074Z,2.00
2022-08-23T07:52:37.891Z,2.03
2022-08-23T07:55:04.978Z,1.80
2022-08-23T07:57:31.786Z,2.05
2022-08-23T07:59:58.604Z,1.70
2022-08-23T08:05:12.261Z,1.90
2022-08-23T08:10:25.984Z,2.92
2022-08-23T08:12:52.774Z,3.13
2022-08-23T08:15:20.647Z,1.70
2022-08-23T08:17:48.482Z,1.50
2022-08-23T08:20:15.921Z,1.50
2022-08-23T08:22:47.240Z,1.70
2022-08-23T08:25:15.089Z,3.42
2022-08-23T08:27:42.712Z,3.00
2022-08-23T08:30:10.406Z,2.88
2022-08-23T08:32:37.877Z,1.90
2022-08-23T08:35:06.392Z,1.50
2022-08-23T08:37:34.038Z,1.48
2022-08-23T08:40:00.858Z,1.63
2022-08-23T08:46:04.256Z,2.00
2022-08-23T08:48:39.657Z,1.70
2022-08-23T08:51:49.565Z,1.40
2022-08-23T08:54:20.796Z,1.45
2022-08-23T08:56:52.231Z,1.70
2022-08-23T08:59:28.712Z,1.40
2022-08-23T09:01:55.570Z,1.40
2022-08-23T09:04:22.461Z,1.40
2022-08-23T09:07:07.556Z,1.50
2022-08-23T09:10:08.835Z,1.40
2022-08-23T09:12:53.927Z,1.40
2022-08-23T09:18:39.733Z,1.85
2022-08-23T09:24:00.439Z,1.83
2022-08-23T09:26:30.640Z,1.97
2022-08-23T09:29:03.850Z,2.50
2022-08-23T09:31:43.674Z,1.50
2022-08-23T09:34:18.075Z,1.30
2022-08-23T09:36:45.538Z,1.40
2022-08-23T09:39:31.437Z,1.40
2022-08-23T09:41:59.214Z,1.20
2022-08-23T09:44:40.102Z,1.40
2022-08-23T09:47:09.824Z,1.20
2022-08-23T09:49:36.699Z,3.03
2022-08-23T09:52:26.612Z,3.20
2022-08-23T09:55:02.218Z,1.42
2022-08-23T09:57:31.795Z,1.50
2022-08-23T10:00:16.526Z,1.30
2022-08-23T10:02:43.759Z,1.40
2022-08-23T10:05:20.322Z,1.10
2022-08-23T10:08:00.003Z,1.30
2022-08-23T10:10:39.499Z,1.30
2022-08-23T10:13:06.571Z,1.10
2022-08-23T10:19:26.379Z,2.15
2022-08-23T10:31:47.900Z,1.00
2022-08-23T10:34:55.143Z,1.30
2022-08-23T10:40:55.164Z,1.35
2022-08-23T10:43:48.549Z,1.60
2022-08-23T10:46:15.457Z,1.60
2022-08-23T10:48:59.597Z,1.73
2022-08-23T10:51:31.796Z,1.50
2022-08-23T10:54:10.013Z,1.47
2022-08-23T10:56:39.505Z,1.20
2022-08-23T10:59:14.078Z,1.20
2022-08-23T11:02:18.473Z,1.30
2022-08-23T11:04:47.984Z,2.60
2022-08-23T11:07:21.395Z,2.97
2022-08-23T11:18:53.915Z,3.22
2022-08-23T11:21:26.432Z,3.05
2022-08-23T11:23:59.306Z,1.40
2022-08-23T11:29:25.054Z,1.27
2022-08-23T11:32:10.295Z,1.40
2022-08-23T11:35:02.467Z,1.70
2022-08-23T11:40:49.873Z,1.60
2022-08-23T11:43:27.635Z,1.90
2022-08-23T11:46:13.310Z,1.40
2022-08-23T11:48:43.823Z,1.30
2022-08-23T11:51:35.420Z,1.63
2022-08-23T11:54:57.500Z,1.50
2022-08-23T11:57:36.619Z,1.50
2022-08-23T12:00:21.004Z,1.50
2022-08-23T12:03:06.510Z,1.30
2022-08-23T12:14:44.067Z,1.30
2022-08-23T12:17:16.931Z,1.40
2022-08-23T12:19:51.635Z,1.30
2022-08-23T12:22:22.836Z,1.10
2022-08-23T12:24:57.848Z,1.60
2022-08-23T12:27:45.097Z,1.50
2022-08-23T12:30:19.570Z,1.20
2022-08-23T12:32:52.249Z,1.20
2022-08-23T12:35:30.730Z,1.10
2022-08-23T12:38:15.059Z,1.20
2022-08-23T12:43:22.523Z,1.17
2022-08-23T12:48:48.878Z,1.52
2022-08-23T12:51:17.207Z,1.25
2022-08-23T12:53:45.828Z,1.25
2022-08-23T12:56:31.327Z,1.47
2022-08-23T12:59:04.094Z,1.38
2022-08-23T13:01:35.830Z,1.83
2022-08-23T13:04:14.586Z,1.30
2022-08-23T13:06:47.398Z,1.20
2022-08-23T13:09:16.980Z,1.30
2022-08-23T13:14:45.461Z,1.42
2022-08-23T13:17:27.199Z,1.30
2022-08-23T13:23:02.899Z,2.00
2022-08-23T13:25:34.044Z,2.78
2022-08-23T13:28:05.867Z,1.87
2022-08-23T13:30:36.627Z,1.40
2022-08-23T13:33:09.340Z,1.42
2022-08-23T13:35:43.346Z,1.30
2022-08-23T13:38:19.868Z,1.65
2022-08-23T13:41:06.494Z,1.50
2022-08-23T13:43:36.230Z,1.20
2022-08-23T13:46:14.765Z,1.20
2022-08-23T13:49:13.068Z,1.40
2022-08-23T13:52:17.215Z,1.20
2022-08-23T13:54:45.840Z,1.60
2022-08-23T13:57:20.849Z,1.52
2022-08-23T13:59:56.507Z,1.20
2022-08-23T14:02:24.420Z,1.20
2022-08-23T14:04:51.994Z,1.40
2022-08-23T14:07:19.403Z,1.30
2022-08-23T14:09:46.231Z,1.10
2022-08-23T14:12:19.311Z,1.50
2022-08-23T14:14:47.118Z,1.25
2022-08-23T14:17:16.625Z,1.10
2022-08-23T14:22:32.146Z,1.30
2022-08-23T14:27:47.409Z,1.40
2022-08-23T14:30:30.190Z,1.20
2022-08-23T14:32:58.046Z,1.17
2022-08-23T14:35:24.883Z,1.30
2022-08-23T14:38:07.055Z,1.25
2022-08-23T14:40:35.901Z,1.40
2022-08-23T14:43:04.581Z,1.40
2022-08-23T14:45:32.414Z,1.10
2022-08-23T14:47:59.309Z,1.10
2022-08-23T14:50:26.091Z,1.40
2022-08-23T14:52:55.508Z,1.40
2022-08-23T14:55:25.002Z,1.20
2022-08-23T14:57:52.185Z,2.00
2022-08-23T15:00:19.097Z,1.83
2022-08-23T15:02:47.051Z,1.80
2022-08-23T15:05:14.803Z,5.95
2022-08-23T15:07:41.777Z,1.50
2022-08-23T15:10:09.981Z,1.52
2022-08-23T15:15:24.456Z,1.30
2022-08-23T15:17:58.327Z,1.33
2022-08-23T15:20:31.916Z,1.50
2022-08-23T15:23:00.352Z,1.23
2022-08-23T15:25:30.127Z,1.40
2022-08-23T15:30:45.984Z,1.10
2022-08-23T15:36:00.332Z,1.50
2022-08-23T15:38:28.416Z,1.30
2022-08-23T15:40:56.026Z,1.20
2022-08-23T15:43:34.096Z,1.30
2022-08-23T15:46:05.418Z,2.38
2022-08-23T15:51:29.118Z,1.20
2022-08-23T15:53:56.555Z,1.20
2022-08-23T15:56:33.838Z,1.20
2022-08-23T16:01:47.452Z,1.10
2022-08-23T16:07:01.159Z,2.70
2022-08-23T16:12:17.465Z,1.20
2022-08-23T16:14:44.261Z,5.15
2022-08-23T16:17:12.179Z,2.70
2022-08-23T16:19:39.013Z,3.65
2022-08-23T16:22:05.822Z,2.00
2022-08-23T16:24:32.635Z,1.15
2022-08-23T16:26:59.446Z,1.13
2022-08-23T16:29:26.254Z,1.30
2022-08-23T16:31:53.042Z,1.20
2022-08-23T16:37:07.865Z,1.10
2022-08-23T16:42:21.357Z,1.13
2022-08-23T16:44:48.119Z,1.20
2022-08-23T16:47:15.853Z,1.23
2022-08-23T16:49:42.901Z,1.42
2022-08-23T16:52:10.242Z,1.30
2022-08-23T16:54:37.723Z,1.30
2022-08-23T16:57:05.201Z,1.33
2022-08-23T16:59:32.077Z,1.30
2022-08-23T17:04:52.192Z,1.80
2022-08-23T17:07:19.543Z,1.70
2022-08-23T17:09:46.393Z,1.60
2022-08-23T17:12:13.802Z,1.60
2022-08-23T17:14:40.649Z,1.60
2022-08-23T17:17:07.489Z,1.50
2022-08-23T17:19:34.345Z,1.73
2022-08-23T17:22:01.242Z,1.58
2022-08-23T17:24:28.091Z,1.70
2022-08-23T17:26:54.942Z,1.70
2022-08-23T17:29:21.752Z,1.90
2022-08-23T17:31:48.661Z,1.60
2022-08-23T17:34:15.630Z,1.70
2022-08-23T17:36:49.660Z,1.83
2022-08-23T17:42:06.385Z,1.70
2022-08-23T17:44:33.149Z,1.70
2022-08-23T17:46:59.946Z,1.97
2022-08-23T17:49:26.818Z,2.20
2022-08-23T17:51:53.636Z,1.75
2022-08-23T17:54:20.483Z,2.00
2022-08-23T17:56:50.666Z,2.00
2022-08-23T17:59:18.930Z,2.08
2022-08-23T18:01:45.752Z,2.05
2022-08-23T18:04:12.572Z,2.20
2022-08-23T18:06:39.507Z,2.50
2022-08-23T18:09:07.514Z,2.30
2022-08-23T18:11:34.949Z,1.90
2022-08-23T18:14:01.979Z,2.50
2022-08-23T18:16:31.881Z,6.20
2022-08-23T18:19:03.235Z,2.70
2022-08-23T18:21:30.806Z,2.10
2022-08-23T18:23:57.920Z,1.67
2022-08-23T18:26:25.206Z,1.90
2022-08-23T18:28:52.186Z,1.80
2022-08-23T18:31:19.022Z,1.90
2022-08-23T18:33:46.718Z,1.90
2022-08-23T18:36:14.551Z,1.60
2022-08-23T18:38:41.348Z,1.80
2022-08-23T18:41:08.121Z,1.70
2022-08-23T18:43:37.570Z,1.98
2022-08-23T18:46:05.796Z,1.90
2022-08-23T18:48:33.240Z,1.60
2022-08-23T18:51:00.871Z,2.33
2022-08-23T18:53:28.555Z,5.18
2022-08-23T18:55:55.802Z,4.70
2022-08-23T18:58:23.405Z,2.70
2022-08-23T19:00:52.431Z,1.90
2022-08-23T19:03:19.338Z,1.67
2022-08-23T19:05:46.454Z,2.10
2022-08-23T19:08:14.093Z,1.77
2022-08-23T19:10:42.901Z,1.70
2022-08-23T19:13:10.692Z,1.80
2022-08-23T19:15:38.310Z,1.70
2022-08-23T19:18:05.220Z,1.60
2022-08-23T19:20:32.087Z,1.70
2022-08-23T19:22:59.367Z,1.75
2022-08-23T19:25:26.657Z,1.63
2022-08-23T19:27:53.517Z,1.40
2022-08-23T19:30:20.306Z,1.50
2022-08-23T19:32:47.102Z,1.60
2022-08-23T19:35:14.229Z,1.90
2022-08-23T19:37:41.108Z,1.70
2022-08-23T19:40:08.743Z,1.70
2022-08-23T19:42:35.591Z,1.80
2022-08-23T19:45:04.097Z,1.40
2022-08-23T19:47:30.897Z,1.80
2022-08-23T19:49:58.981Z,1.60
2022-08-23T19:52:26.106Z,1.70
2022-08-23T19:54:52.862Z,1.70
2022-08-23T19:57:19.691Z,2.30
2022-08-23T19:59:46.700Z,2.10
2022-08-23T20:02:13.586Z,3.78
2022-08-23T20:04:40.678Z,3.23
2022-08-23T20:07:07.446Z,1.65
2022-08-23T20:09:35.378Z,1.60
2022-08-23T20:12:02.287Z,1.80
2022-08-23T20:14:31.101Z,1.58
2022-08-23T20:16:58.107Z,1.65
2022-08-23T20:19:24.952Z,1.50
2022-08-23T20:21:52.176Z,1.70
2022-08-23T20:24:25.521Z,1.40
2022-08-23T20:26:59.473Z,1.23
2022-08-23T20:29:26.248Z,1.80
2022-08-23T20:31:57.198Z,1.50
2022-08-23T20:34:26.504Z,1.50
2022-08-23T20:36:54.656Z,1.73
2022-08-23T20:39:24.102Z,1.52
2022-08-23T20:41:52.190Z,1.50
2022-08-23T20:44:21.350Z,1.40
2022-08-23T20:46:53.749Z,1.70
2022-08-23T20:49:22.367Z,1.70
2022-08-23T20:51:49.924Z,2.72
2022-08-23T20:54:16.756Z,4.57
2022-08-23T20:56:43.578Z,2.17
2022-08-23T20:59:10.348Z,1.40
2022-08-23T21:01:37.160Z,1.60
2022-08-23T21:04:04.274Z,1.50
2022-08-23T21:06:41.932Z,1.60
2022-08-23T21:09:13.972Z,1.60
2022-08-23T21:11:40.829Z,1.60
2022-08-23T21:14:07.636Z,1.70
2022-08-23T21:16:34.504Z,1.60
2022-08-23T21:19:01.533Z,1.60
2022-08-23T21:21:28.618Z,1.60
2022-08-23T21:23:56.328Z,1.40
2022-08-23T21:26:24.632Z,1.60
2022-08-23T21:28:52.689Z,1.80
2022-08-23T21:31:24.479Z,1.65
2022-08-23T21:33:52.687Z,1.90
2022-08-23T21:36:21.447Z,1.70
2022-08-23T21:38:48.523Z,1.70
2022-08-23T21:41:37.085Z,1.53
2022-08-23T21:44:08.297Z,1.70
2022-08-23T21:46:35.482Z,1.60
2022-08-23T21:49:02.639Z,1.73
2022-08-23T21:51:29.733Z,1.67
2022-08-23T21:53:56.688Z,1.80
2022-08-23T21:56:23.547Z,1.50
2022-08-23T21:58:52.904Z,1.73
2022-08-23T22:01:19.728Z,1.70
2022-08-23T22:03:46.547Z,1.75
2022-08-23T22:06:16.239Z,1.67
2022-08-23T22:08:44.250Z,1.50
2022-08-23T22:11:12.715Z,2.00
2022-08-23T22:13:40.414Z,1.75
2022-08-23T22:16:07.512Z,1.85
2022-08-23T22:18:35.252Z,1.50
2022-08-23T22:21:04.307Z,1.60
2022-08-23T22:23:31.913Z,1.90
2022-08-23T22:26:04.961Z,2.13
2022-08-23T22:28:32.831Z,2.20
2022-08-23T22:31:01.186Z,1.70
2022-08-23T22:33:28.292Z,1.60
2022-08-23T22:35:55.290Z,1.88
2022-08-23T22:38:22.134Z,2.00
2022-08-23T22:40:51.226Z,1.87
2022-08-23T22:43:19.078Z,1.80
2022-08-23T22:45:51.049Z,2.00
2022-08-23T22:48:17.923Z,1.90
2022-08-23T22:50:45.074Z,1.90
2022-08-23T22:53:12.158Z,2.20
2022-08-23T22:55:38.993Z,2.40
2022-08-23T22:58:05.800Z,2.50
2022-08-23T23:00:32.754Z,2.35
2022-08-23T23:02:59.646Z,2.30
2022-08-23T23:05:26.439Z,2.50
2022-08-23T23:07:53.465Z,2.30
2022-08-23T23:10:20.254Z,2.40
2022-08-23T23:12:47.070Z,2.20
2022-08-23T23:15:14.248Z,2.20
2022-08-23T23:17:41.064Z,1.92
2022-08-23T23:20:08.584Z,2.10
2022-08-23T23:22:35.387Z,1.90
2022-08-23T23:25:02.623Z,2.10
2022-08-23T23:27:29.434Z,1.83
2022-08-23T23:29:56.196Z,2.10
2022-08-23T23:32:23.018Z,2.10
2022-08-23T23:34:49.949Z,2.20
2022-08-23T23:37:16.724Z,1.90
2022-08-23T23:41:57.250Z,1.90
2022-08-23T23:44:30.916Z,2.20
2022-08-23T23:49:45.277Z,2.20
2022-08-23T23:54:59.264Z,2.00
2022-08-23T23:57:26.147Z,2.10
2022-08-23T23:59:53.887Z,1.90
